createdAt,value
2023-06-29T00:01:08.541Z,15.40
2023-06-29T00:03:35.738Z,15.40
2023-06-29T00:06:03.259Z,15.50
2023-06-29T00:08:36.918Z,15.50
2023-06-29T00:11:04.754Z,15.40
2023-06-29T00:13:31.907Z,15.40
2023-06-29T00:15:58.791Z,15.40
2023-06-29T00:18:29.277Z,15.40
2023-06-29T00:20:57.506Z,15.40
2023-06-29T00:23:26.086Z,15.30
2023-06-29T00:25:54.514Z,15.40
2023-06-29T00:28:21.516Z,15.40
2023-06-29T00:30:48.590Z,15.40
2023-06-29T00:33:15.526Z,15.40
2023-06-29T00:35:42.769Z,15.30
2023-06-29T00:38:09.833Z,15.30
2023-06-29T00:40:36.665Z,15.30
2023-06-29T00:43:03.548Z,15.30
2023-06-29T00:45:30.426Z,15.30
2023-06-29T00:47:59.424Z,15.30
2023-06-29T00:50:27.625Z,15.20
2023-06-29T00:52:55.168Z,15.20
2023-06-29T00:55:22.407Z,15.20
2023-06-29T00:57:49.176Z,15.20
2023-06-29T01:00:16.654Z,15.20
2023-06-29T01:02:43.941Z,15.10
2023-06-29T01:05:14.791Z,15.10
2023-06-29T01:07:57.721Z,15.10
2023-06-29T01:10:27.180Z,15.00
2023-06-29T01:12:55.160Z,15.00
2023-06-29T01:15:23.486Z,15.00
2023-06-29T01:17:55.568Z,15.00
2023-06-29T01:20:26.970Z,15.00
2023-06-29T01:23:00.448Z,15.00
2023-06-29T01:25:31.038Z,14.90
2023-06-29T01:27:58.455Z,14.90
2023-06-29T01:30:25.946Z,14.90
2023-06-29T01:32:52.990Z,14.90
2023-06-29T01:35:20.179Z,14.90
2023-06-29T01:37:56.698Z,14.90
2023-06-29T01:40:28.662Z,14.80
2023-06-29T01:42:58.883Z,14.80
2023-06-29T01:45:26.981Z,14.80
2023-06-29T01:47:55.681Z,14.80
2023-06-29T01:50:22.983Z,14.80
2023-06-29T01:52:49.941Z,14.70
2023-06-29T01:55:17.003Z,14.70
2023-06-29T01:57:43.783Z,14.70
2023-06-29T02:00:12.954Z,14.60
2023-06-29T02:02:39.827Z,14.60
2023-06-29T02:05:07.591Z,14.60
2023-06-29T02:07:34.695Z,14.60
2023-06-29T02:10:02.045Z,14.60
2023-06-29T02:12:28.865Z,14.60
2023-06-29T02:14:55.672Z,14.60
2023-06-29T02:17:22.632Z,14.60
2023-06-29T02:19:49.678Z,14.60
2023-06-29T02:22:16.527Z,14.60
2023-06-29T02:24:44.301Z,14.50
2023-06-29T02:27:11.098Z,14.50
2023-06-29T02:29:38.132Z,14.50
2023-06-29T02:32:05.524Z,14.50
2023-06-29T02:34:32.604Z,14.50
2023-06-29T02:36:59.487Z,14.50
2023-06-29T02:39:26.477Z,14.50
2023-06-29T02:41:53.321Z,14.40
2023-06-29T02:44:20.191Z,14.40
2023-06-29T02:46:48.352Z,14.40
2023-06-29T02:49:16.560Z,14.40
2023-06-29T02:51:43.502Z,14.50
2023-06-29T02:54:10.565Z,14.50
2023-06-29T02:56:37.654Z,14.50
2023-06-29T02:59:05.437Z,14.50
2023-06-29T03:01:33.509Z,14.50
2023-06-29T03:04:01.527Z,14.50
2023-06-29T03:06:29.404Z,14.50
2023-06-29T03:08:56.189Z,14.50
2023-06-29T03:11:24.657Z,14.50
2023-06-29T03:13:52.290Z,14.50
2023-06-29T03:16:19.322Z,14.50
2023-06-29T03:18:46.114Z,14.60
2023-06-29T03:21:18.385Z,14.60
2023-06-29T03:23:46.381Z,14.60
2023-06-29T03:26:14.656Z,14.60
2023-06-29T03:28:42.682Z,14.60
2023-06-29T03:31:09.569Z,14.60
2023-06-29T03:33:36.660Z,14.60
2023-06-29T03:36:05.686Z,14.70
2023-06-29T03:38:32.737Z,14.70
2023-06-29T03:40:59.522Z,14.80
2023-06-29T03:43:26.350Z,14.80
2023-06-29T03:45:53.210Z,14.90
2023-06-29T03:48:21.894Z,14.90
2023-06-29T03:50:50.444Z,15.00
2023-06-29T03:53:17.487Z,15.00
2023-06-29T03:55:44.770Z,15.00
2023-06-29T03:58:12.148Z,15.10
2023-06-29T04:00:39.204Z,15.10
2023-06-29T04:03:06.565Z,15.20
2023-06-29T04:05:33.558Z,15.20
2023-06-29T04:08:05.065Z,15.30
2023-06-29T04:10:35.842Z,15.30
2023-06-29T04:13:03.395Z,15.40
2023-06-29T04:15:31.505Z,15.40
2023-06-29T04:17:58.561Z,15.40
2023-06-29T04:20:25.815Z,15.50
2023-06-29T04:22:52.720Z,15.60
2023-06-29T04:25:19.566Z,15.70
2023-06-29T04:27:46.393Z,15.80
2023-06-29T04:30:14.139Z,15.90
2023-06-29T04:32:40.994Z,16.00
2023-06-29T04:35:10.745Z,16.10
2023-06-29T04:37:42.169Z,16.10
2023-06-29T04:40:10.979Z,16.20
2023-06-29T04:42:49.049Z,16.30
2023-06-29T04:45:19.417Z,16.30
2023-06-29T04:47:52.782Z,16.40
2023-06-29T04:50:26.085Z,16.40
2023-06-29T04:52:53.762Z,16.40
2023-06-29T04:55:20.763Z,16.40
2023-06-29T04:57:47.765Z,16.40
2023-06-29T05:00:15.878Z,16.50
2023-06-29T05:02:43.257Z,16.50
2023-06-29T05:05:10.426Z,16.60
2023-06-29T05:07:39.167Z,16.60
2023-06-29T05:10:06.886Z,16.60
2023-06-29T05:12:33.941Z,16.70
2023-06-29T05:15:00.873Z,16.70
2023-06-29T05:17:27.702Z,16.80
2023-06-29T05:19:54.524Z,16.80
2023-06-29T05:22:21.358Z,16.90
2023-06-29T05:24:48.197Z,16.90
2023-06-29T05:27:15.099Z,17.00
2023-06-29T05:29:41.934Z,17.00
2023-06-29T05:32:09.380Z,17.10
2023-06-29T05:34:36.800Z,17.10
2023-06-29T05:37:03.910Z,17.20
2023-06-29T05:39:30.860Z,17.20
2023-06-29T05:41:57.709Z,17.20
2023-06-29T05:44:24.464Z,17.30
2023-06-29T05:46:51.541Z,17.40
2023-06-29T05:49:18.443Z,17.50
2023-06-29T05:51:45.408Z,17.50
2023-06-29T05:54:12.446Z,17.60
2023-06-29T05:56:39.218Z,17.60
2023-06-29T05:59:06.175Z,17.60
2023-06-29T06:01:33.323Z,17.70
2023-06-29T06:04:00.630Z,17.80
2023-06-29T06:06:31.589Z,17.80
2023-06-29T06:08:58.713Z,17.90
2023-06-29T06:11:26.228Z,18.00
2023-06-29T06:13:53.202Z,18.00
2023-06-29T06:16:20.277Z,18.10
2023-06-29T06:18:47.355Z,18.20
2023-06-29T06:21:14.243Z,18.20
2023-06-29T06:23:41.894Z,18.30
2023-06-29T06:26:08.725Z,18.30
2023-06-29T06:28:35.492Z,18.40
2023-06-29T06:31:02.265Z,18.50
2023-06-29T06:33:31.392Z,18.60
2023-06-29T06:35:58.519Z,18.70
2023-06-29T06:38:34.412Z,18.70
2023-06-29T06:41:11.887Z,18.80
2023-06-29T06:43:38.736Z,18.90
2023-06-29T06:46:05.478Z,18.90
2023-06-29T06:48:32.255Z,19.00
2023-06-29T06:50:59.017Z,19.10
2023-06-29T06:53:25.926Z,19.10
2023-06-29T06:55:53.277Z,19.20
2023-06-29T06:58:20.180Z,19.30
2023-06-29T07:00:47.291Z,19.40
2023-06-29T07:03:14.538Z,19.50
2023-06-29T07:05:41.557Z,19.50
2023-06-29T07:08:08.391Z,19.60
2023-06-29T07:10:35.146Z,19.70
2023-06-29T07:13:02.195Z,19.80
2023-06-29T07:15:29.061Z,19.80
2023-06-29T07:17:55.870Z,19.90
2023-06-29T07:25:23.710Z,20.00
2023-06-29T07:27:50.649Z,20.00
2023-06-29T07:30:17.677Z,20.10
2023-06-29T07:32:45.238Z,20.20
2023-06-29T07:35:12.278Z,20.30
2023-06-29T07:37:39.548Z,20.40
2023-06-29T07:40:07.584Z,20.40
2023-06-29T07:42:39.872Z,20.40
2023-06-29T07:45:08.417Z,20.50
2023-06-29T07:47:35.482Z,20.50
2023-06-29T07:50:02.475Z,20.60
2023-06-29T07:52:30.970Z,20.60
2023-06-29T07:54:58.090Z,20.70
2023-06-29T07:59:54.737Z,20.90
2023-06-29T08:02:21.840Z,20.90
2023-06-29T08:07:18.681Z,21.00
2023-06-29T08:09:45.595Z,21.10
2023-06-29T08:12:12.462Z,21.20
2023-06-29T08:14:39.410Z,21.30
2023-06-29T08:17:06.475Z,21.40
2023-06-29T08:19:33.643Z,21.40
2023-06-29T08:22:00.565Z,21.50
2023-06-29T08:24:27.593Z,21.50
2023-06-29T08:26:54.404Z,21.60
2023-06-29T08:29:21.403Z,21.70
2023-06-29T08:31:48.258Z,21.80
2023-06-29T08:34:15.241Z,21.80
2023-06-29T08:36:42.269Z,21.90
2023-06-29T08:39:09.867Z,21.90
2023-06-29T08:41:37.080Z,22.00
2023-06-29T08:44:05.645Z,22.00
2023-06-29T08:46:33.099Z,22.10
2023-06-29T08:49:01.407Z,22.10
2023-06-29T08:51:30.079Z,22.10
2023-06-29T08:53:57.578Z,22.20
2023-06-29T08:56:24.875Z,22.20
2023-06-29T08:58:52.827Z,22.20
2023-06-29T09:01:20.487Z,22.30
2023-06-29T09:03:48.627Z,22.40
2023-06-29T09:06:16.276Z,22.50
2023-06-29T09:08:43.273Z,22.50
2023-06-29T09:11:10.276Z,22.50
2023-06-29T09:13:37.800Z,22.50
2023-06-29T09:16:06.010Z,22.60
2023-06-29T09:18:34.272Z,22.70
2023-06-29T09:21:01.166Z,22.80
2023-06-29T09:23:29.815Z,22.90
2023-06-29T09:25:57.902Z,22.90
2023-06-29T09:28:25.506Z,23.00
2023-06-29T09:30:52.612Z,23.00
2023-06-29T09:33:20.354Z,23.10
2023-06-29T09:35:49.240Z,23.10
2023-06-29T09:38:19.851Z,23.20
2023-06-29T09:40:53.407Z,23.30
2023-06-29T09:43:31.026Z,23.30
2023-06-29T09:46:16.138Z,23.40
2023-06-29T09:51:21.782Z,23.50
2023-06-29T09:53:48.867Z,23.60
2023-06-29T09:56:17.870Z,23.60
2023-06-29T09:58:47.215Z,23.60
2023-06-29T10:01:17.040Z,23.60
2023-06-29T10:03:45.018Z,23.60
2023-06-29T10:06:16.967Z,23.70
2023-06-29T10:08:45.437Z,23.70
2023-06-29T10:11:12.546Z,23.80
2023-06-29T10:13:46.523Z,23.90
2023-06-29T10:16:15.902Z,24.00
2023-06-29T10:18:47.556Z,24.00
2023-06-29T10:21:14.850Z,24.00
2023-06-29T10:23:42.972Z,24.00
2023-06-29T10:26:12.093Z,24.10
2023-06-29T10:28:39.232Z,24.20
2023-06-29T10:31:06.055Z,24.30
2023-06-29T10:33:32.861Z,24.40
2023-06-29T10:36:04.087Z,24.40
2023-06-29T10:38:35.251Z,24.40
2023-06-29T10:41:05.972Z,24.50
2023-06-29T10:43:59.112Z,24.50
2023-06-29T10:46:48.973Z,24.50
2023-06-29T10:49:22.789Z,24.60
2023-06-29T10:51:54.401Z,24.70
2023-06-29T10:54:25.429Z,24.80
2023-06-29T10:57:11.809Z,24.90
2023-06-29T10:59:39.833Z,24.90
2023-06-29T11:02:08.958Z,24.90
2023-06-29T11:04:35.952Z,25.00
2023-06-29T11:07:09.563Z,25.00
2023-06-29T11:09:36.376Z,25.00
2023-06-29T11:12:03.464Z,25.10
2023-06-29T11:14:30.669Z,25.10
2023-06-29T11:16:57.550Z,25.20
2023-06-29T11:19:28.957Z,25.30
2023-06-29T11:21:56.077Z,25.50
2023-06-29T11:24:23.239Z,25.50
2023-06-29T11:26:50.229Z,25.60
2023-06-29T11:29:17.162Z,25.60
2023-06-29T11:31:45.282Z,25.70
2023-06-29T11:34:14.265Z,25.80
2023-06-29T11:36:41.018Z,26.00
2023-06-29T11:39:09.810Z,25.90
2023-06-29T11:41:40.512Z,25.90
2023-06-29T11:44:10.410Z,25.70
2023-06-29T11:46:41.007Z,25.90
2023-06-29T11:49:07.828Z,26.20
2023-06-29T11:51:40.055Z,26.40
2023-06-29T11:54:08.577Z,26.70
2023-06-29T11:56:37.465Z,27.00
2023-06-29T11:59:13.537Z,27.60
2023-06-29T12:01:41.152Z,28.30
2023-06-29T12:04:10.175Z,28.60
2023-06-29T12:06:37.811Z,28.50
2023-06-29T12:09:12.769Z,28.60
2023-06-29T12:11:40.790Z,28.90
2023-06-29T12:14:10.593Z,29.20
2023-06-29T12:19:14.298Z,30.10
2023-06-29T12:21:42.254Z,30.80
2023-06-29T12:24:09.425Z,31.50
2023-06-29T12:26:36.179Z,32.20
2023-06-29T12:29:02.961Z,32.90
2023-06-29T12:31:30.162Z,33.10
2023-06-29T12:33:57.953Z,33.60
2023-06-29T12:36:24.770Z,33.80
2023-06-29T12:38:52.038Z,34.00
2023-06-29T12:41:19.616Z,34.10
2023-06-29T12:43:46.468Z,33.90
2023-06-29T12:46:13.288Z,34.20
2023-06-29T12:48:40.344Z,33.60
2023-06-29T12:51:07.204Z,33.40
2023-06-29T12:53:34.041Z,33.30
2023-06-29T12:56:01.633Z,33.40
2023-06-29T12:58:29.066Z,33.70
2023-06-29T13:00:56.178Z,33.80
2023-06-29T13:03:23.134Z,34.10
2023-06-29T13:05:53.144Z,34.10
2023-06-29T13:08:20.198Z,34.00
2023-06-29T13:10:47.182Z,34.10
2023-06-29T13:13:14.011Z,33.90
2023-06-29T13:15:40.834Z,33.90
2023-06-29T13:18:07.646Z,34.30
2023-06-29T13:20:34.425Z,34.50
2023-06-29T13:23:01.990Z,34.80
2023-06-29T13:25:28.854Z,34.50
2023-06-29T13:27:55.627Z,34.60
2023-06-29T13:30:22.475Z,34.90
2023-06-29T13:32:49.658Z,35.00
2023-06-29T13:35:16.485Z,35.10
2023-06-29T13:37:43.294Z,35.20
2023-06-29T13:40:10.639Z,35.40
2023-06-29T13:42:37.464Z,35.70
2023-06-29T13:45:04.561Z,35.90
2023-06-29T13:47:31.386Z,35.80
2023-06-29T13:49:58.512Z,35.20
2023-06-29T13:52:25.429Z,34.40
2023-06-29T13:54:52.200Z,33.40
2023-06-29T13:57:18.977Z,32.50
2023-06-29T13:59:46.840Z,31.60
2023-06-29T14:02:13.900Z,30.80
2023-06-29T14:04:40.776Z,30.30
2023-06-29T14:07:08.506Z,29.60
2023-06-29T14:09:35.780Z,29.10
2023-06-29T14:12:02.633Z,28.50
2023-06-29T14:14:29.379Z,28.10
2023-06-29T14:16:56.321Z,27.90
2023-06-29T14:19:23.116Z,27.70
2023-06-29T14:21:49.876Z,27.50
2023-06-29T14:24:16.621Z,27.40
2023-06-29T14:26:43.436Z,27.30
2023-06-29T14:29:10.174Z,27.20
2023-06-29T14:31:37.225Z,27.30
2023-06-29T14:34:04.232Z,27.20
2023-06-29T14:36:31.155Z,27.10
2023-06-29T14:38:57.967Z,27.00
2023-06-29T14:41:24.726Z,26.80
2023-06-29T14:43:51.983Z,26.70
2023-06-29T14:46:18.811Z,26.70
2023-06-29T14:48:45.802Z,26.60
2023-06-29T14:51:12.689Z,26.60
2023-06-29T14:53:39.494Z,26.60
2023-06-29T14:56:10.898Z,26.60
2023-06-29T14:58:37.998Z,26.50
2023-06-29T15:01:05.613Z,26.30
2023-06-29T15:03:32.684Z,26.20
2023-06-29T15:05:59.619Z,26.00
2023-06-29T15:08:28.221Z,25.90
2023-06-29T15:10:55.110Z,25.70
2023-06-29T15:13:22.004Z,25.70
2023-06-29T15:15:49.028Z,25.70
2023-06-29T15:18:16.190Z,25.60
2023-06-29T15:20:43.161Z,25.60
2023-06-29T15:23:10.147Z,25.60
2023-06-29T15:25:39.152Z,25.60
2023-06-29T15:28:07.250Z,25.60
2023-06-29T15:30:47.261Z,25.60
2023-06-29T15:33:19.423Z,25.60
2023-06-29T15:35:46.650Z,25.50
2023-06-29T15:38:13.726Z,25.50
2023-06-29T15:40:40.958Z,25.40
2023-06-29T15:43:07.751Z,25.40
2023-06-29T15:45:34.522Z,25.40
2023-06-29T15:48:01.453Z,25.50
2023-06-29T15:50:28.591Z,25.70
2023-06-29T15:52:55.409Z,25.90
2023-06-29T15:55:22.310Z,26.20
2023-06-29T15:57:49.223Z,26.40
2023-06-29T16:00:16.616Z,26.60
2023-06-29T16:02:43.493Z,26.70
2023-06-29T16:05:10.776Z,26.60
2023-06-29T16:07:38.626Z,26.60
2023-06-29T16:10:06.363Z,26.60
2023-06-29T16:12:33.610Z,26.60
2023-06-29T16:15:01.950Z,26.50
2023-06-29T16:17:29.500Z,26.40
2023-06-29T16:19:57.030Z,26.30
2023-06-29T16:22:23.900Z,26.20
2023-06-29T16:24:50.700Z,26.10
2023-06-29T16:27:17.538Z,26.00
2023-06-29T16:29:44.363Z,26.00
2023-06-29T16:32:11.574Z,26.00
2023-06-29T16:34:38.456Z,26.10
2023-06-29T16:37:07.128Z,26.00
2023-06-29T16:39:34.627Z,26.00
2023-06-29T16:42:01.412Z,26.00
2023-06-29T16:44:28.254Z,26.00
2023-06-29T16:46:55.720Z,26.00
2023-06-29T16:49:22.656Z,25.90
2023-06-29T16:51:49.540Z,25.80
2023-06-29T16:54:16.318Z,25.80
2023-06-29T16:56:43.123Z,25.90
2023-06-29T16:59:10.037Z,25.90
2023-06-29T17:01:36.831Z,26.00
2023-06-29T17:04:04.201Z,26.00
2023-06-29T17:06:31.146Z,26.10
2023-06-29T17:08:58.245Z,26.20
2023-06-29T17:11:26.359Z,26.30
2023-06-29T17:13:53.155Z,26.30
2023-06-29T17:16:20.972Z,26.40
2023-06-29T17:18:47.800Z,26.30
2023-06-29T17:21:15.346Z,26.30
2023-06-29T17:23:42.671Z,26.30
2023-06-29T17:26:10.596Z,26.20
2023-06-29T17:28:37.418Z,26.20
2023-06-29T17:31:04.737Z,26.10
2023-06-29T17:33:41.316Z,26.10
2023-06-29T17:36:19.854Z,26.00
2023-06-29T17:38:46.790Z,25.90
2023-06-29T17:41:14.098Z,25.80
2023-06-29T17:43:40.818Z,25.70
2023-06-29T17:46:07.600Z,25.60
2023-06-29T17:48:34.391Z,25.50
2023-06-29T17:51:15.614Z,25.50
2023-06-29T17:53:44.021Z,25.50
2023-06-29T17:56:13.027Z,25.40
2023-06-29T17:58:39.831Z,25.40
2023-06-29T18:01:06.653Z,25.20
2023-06-29T18:03:33.576Z,25.20
2023-06-29T18:06:00.449Z,25.20
2023-06-29T18:08:27.199Z,25.10
2023-06-29T18:10:54.003Z,25.00
2023-06-29T18:13:20.781Z,25.00
2023-06-29T18:15:47.817Z,24.90
2023-06-29T18:18:14.813Z,24.80
2023-06-29T18:20:42.091Z,24.70
2023-06-29T18:23:08.865Z,24.60
2023-06-29T18:25:35.657Z,24.50
2023-06-29T18:28:02.427Z,24.40
2023-06-29T18:30:29.494Z,24.40
2023-06-29T18:32:56.258Z,24.30
2023-06-29T18:35:23.115Z,24.20
2023-06-29T18:37:49.948Z,24.10
2023-06-29T18:40:16.765Z,24.00
2023-06-29T18:42:43.509Z,23.90
2023-06-29T18:45:10.998Z,23.90
2023-06-29T18:47:37.958Z,23.80
2023-06-29T18:50:07.280Z,23.70
2023-06-29T18:52:34.235Z,23.60
2023-06-29T18:55:01.905Z,23.60
2023-06-29T18:57:28.865Z,23.50
2023-06-29T18:59:55.680Z,23.40
2023-06-29T19:02:22.594Z,23.30
2023-06-29T19:04:49.483Z,23.20
2023-06-29T19:07:17.696Z,23.10
2023-06-29T19:09:45.092Z,23.00
2023-06-29T19:12:13.034Z,22.90
2023-06-29T19:14:40.114Z,22.80
2023-06-29T19:17:07.246Z,22.70
2023-06-29T19:19:35.235Z,22.70
2023-06-29T19:22:02.105Z,22.60
2023-06-29T19:24:28.842Z,22.50
2023-06-29T19:26:55.664Z,22.40
2023-06-29T19:29:22.444Z,22.40
2023-06-29T19:31:49.265Z,22.30
2023-06-29T19:34:16.195Z,22.30
2023-06-29T19:36:42.961Z,22.20
2023-06-29T19:39:09.729Z,22.20
2023-06-29T19:41:37.173Z,22.10
2023-06-29T19:44:04.160Z,22.00
2023-06-29T19:46:31.027Z,22.00
2023-06-29T19:48:57.761Z,21.90
2023-06-29T19:51:24.724Z,21.90
2023-06-29T19:53:51.508Z,21.80
2023-06-29T19:56:18.377Z,21.80
2023-06-29T19:58:45.477Z,21.70
2023-06-29T20:01:12.632Z,21.70
2023-06-29T20:03:39.605Z,21.70
2023-06-29T20:06:07.773Z,21.60
2023-06-29T20:08:34.727Z,21.60
2023-06-29T20:11:01.480Z,21.60
2023-06-29T20:13:28.427Z,21.60
2023-06-29T20:15:55.267Z,21.50
2023-06-29T20:18:22.409Z,21.40
2023-06-29T20:20:50.456Z,21.40
2023-06-29T20:23:18.373Z,21.40
2023-06-29T20:25:46.291Z,21.30
2023-06-29T20:28:13.433Z,21.30
2023-06-29T20:30:40.306Z,21.30
2023-06-29T20:33:07.099Z,21.20
2023-06-29T20:35:34.674Z,21.20
2023-06-29T20:38:01.572Z,21.20
2023-06-29T20:40:28.401Z,21.10
2023-06-29T20:42:55.202Z,21.10
2023-06-29T20:45:22.319Z,21.20
2023-06-29T20:47:49.235Z,21.10
2023-06-29T20:50:16.147Z,21.10
2023-06-29T20:52:42.942Z,21.10
2023-06-29T20:55:10.096Z,21.10
2023-06-29T20:57:38.381Z,21.00
2023-06-29T21:00:06.944Z,21.10
2023-06-29T21:02:34.260Z,21.10
2023-06-29T21:05:01.411Z,21.10
2023-06-29T21:07:28.659Z,21.10
2023-06-29T21:09:55.443Z,21.10
2023-06-29T21:12:22.412Z,21.10
2023-06-29T21:14:49.513Z,21.10
2023-06-29T21:17:16.415Z,21.00
2023-06-29T21:19:43.295Z,21.00
2023-06-29T21:22:12.066Z,21.00
2023-06-29T21:24:41.008Z,21.00
2023-06-29T21:27:10.755Z,21.00
2023-06-29T21:29:42.551Z,21.00
2023-06-29T21:32:12.015Z,20.90
2023-06-29T21:34:39.882Z,20.90
2023-06-29T21:37:07.452Z,20.90
2023-06-29T21:39:34.282Z,20.90
2023-06-29T21:42:01.443Z,20.90
2023-06-29T21:44:28.284Z,20.90
2023-06-29T21:46:55.106Z,20.90
2023-06-29T21:49:22.214Z,20.80
2023-06-29T21:51:49.081Z,20.80
2023-06-29T21:54:15.838Z,20.80
2023-06-29T21:56:42.646Z,20.80
2023-06-29T21:59:09.436Z,20.80
2023-06-29T22:01:36.464Z,20.80
2023-06-29T22:04:03.416Z,20.70
2023-06-29T22:06:30.620Z,20.70
2023-06-29T22:08:57.768Z,20.60
2023-06-29T22:11:30.073Z,20.60
2023-06-29T22:13:57.067Z,20.60
2023-06-29T22:16:24.258Z,20.60
2023-06-29T22:18:54.358Z,20.50
2023-06-29T22:21:22.641Z,20.50
2023-06-29T22:23:53.973Z,20.50
2023-06-29T22:26:21.782Z,20.40
2023-06-29T22:28:48.843Z,20.40
2023-06-29T22:31:18.486Z,20.40
2023-06-29T22:33:46.300Z,20.30
2023-06-29T22:36:14.885Z,20.30
2023-06-29T22:38:42.268Z,20.20
2023-06-29T22:41:09.749Z,20.20
2023-06-29T22:43:36.929Z,20.20
2023-06-29T22:46:04.043Z,20.00
2023-06-29T22:48:30.895Z,20.00
2023-06-29T22:50:57.997Z,20.00
2023-06-29T22:53:25.051Z,19.90
2023-06-29T22:55:52.062Z,19.70
2023-06-29T22:58:26.093Z,19.70
2023-06-29T23:00:54.127Z,19.70
2023-06-29T23:03:21.789Z,19.60
2023-06-29T23:05:49.412Z,19.60
2023-06-29T23:08:17.512Z,19.60
2023-06-29T23:10:44.543Z,19.50
2023-06-29T23:13:15.639Z,19.50
2023-06-29T23:15:44.556Z,19.50
2023-06-29T23:18:13.390Z,19.40
2023-06-29T23:20:45.673Z,19.30
2023-06-29T23:23:14.057Z,19.30
2023-06-29T23:25:44.641Z,19.20
2023-06-29T23:28:11.699Z,19.10
2023-06-29T23:30:38.508Z,19.00
2023-06-29T23:33:05.437Z,19.00
2023-06-29T23:35:32.588Z,19.00
2023-06-29T23:37:59.368Z,18.90
2023-06-29T23:40:27.279Z,18.90
2023-06-29T23:42:54.612Z,18.80
2023-06-29T23:45:22.726Z,18.80
2023-06-29T23:47:50.002Z,18.70
2023-06-29T23:50:19.370Z,18.70
2023-06-29T23:52:46.502Z,18.60
2023-06-29T23:55:13.561Z,18.50
2023-06-29T23:57:41.826Z,18.40
